Time;durP1;ratioP1;P1;durP2;ratioP2;P2;SDS_P1;SDS_P2;PMS_P1;PMS_P2;Temp;Humidity;BMP_temperature;BMP_pressure;BME280_temperature;BME280_humidity;BME280_pressure;Samples;Min_cycle;Max_cycle;Signal;HPM_P1;HPM_P2
2021/04/16 00:01:52;;;;;;;6.28;2.05;;;2.90;99.90;;;;;;4997955;28;20076;-67
2021/04/16 00:04:19;;;;;;;6.15;1.67;;;2.90;99.90;;;;;;4999411;28;20054;-65
2021/04/16 00:06:46;;;;;;;8.98;1.50;;;2.80;99.90;;;;;;5001667;28;20068;-69
2021/04/16 00:09:13;;;;;;;5.45;1.25;;;2.90;99.90;;;;;;4997111;28;20523;-70
2021/04/16 00:11:40;;;;;;;5.68;1.17;;;2.80;99.90;;;;;;4998904;28;20696;-67
2021/04/16 00:14:06;;;;;;;9.98;2.00;;;2.80;99.90;;;;;;4997003;28;20046;-66
2021/04/16 00:16:33;;;;;;;4.38;1.65;;;2.80;99.90;;;;;;4996173;28;20042;-67
2021/04/16 00:19:00;;;;;;;6.38;1.38;;;2.80;99.90;;;;;;4998958;28;20156;-66
2021/04/16 00:21:27;;;;;;;4.95;1.40;;;2.80;99.90;;;;;;5000739;28;20565;-65
2021/04/16 00:23:54;;;;;;;7.25;1.90;;;2.70;99.90;;;;;;4996775;28;20049;-66
2021/04/16 00:26:21;;;;;;;4.75;1.52;;;2.70;99.90;;;;;;4999582;28;20136;-66
2021/04/16 00:28:48;;;;;;;4.28;1.73;;;2.70;99.90;;;;;;5002528;28;20108;-67
2021/04/16 00:31:24;;;;;;;9.48;3.42;;;2.70;99.90;;;;;;5001140;28;20053;-65
2021/04/16 00:33:52;;;;;;;5.25;2.10;;;2.70;99.90;;;;;;5001771;28;20064;-66
2021/04/16 00:36:20;;;;;;;4.88;1.40;;;2.70;99.90;;;;;;5003244;28;20050;-69
2021/04/16 00:38:47;;;;;;;13.85;2.22;;;2.70;99.90;;;;;;5002753;28;20042;-68
2021/04/16 00:41:19;;;;;;;12.82;2.63;;;2.70;99.90;;;;;;5002829;28;20136;-68
2021/04/16 00:43:47;;;;;;;7.65;1.30;;;2.70;99.90;;;;;;5000684;28;20053;-66
2021/04/16 00:46:13;;;;;;;6.47;1.80;;;2.70;99.90;;;;;;5004206;28;20731;-67
2021/04/16 00:48:50;;;;;;;9.90;1.50;;;2.70;99.90;;;;;;5003856;28;20133;-65
2021/04/16 00:51:25;;;;;;;2.95;1.25;;;2.70;99.90;;;;;;4998153;28;20053;-65
2021/04/16 00:53:54;;;;;;;6.13;1.27;;;2.70;99.90;;;;;;4980889;28;20053;-65
2021/04/16 00:56:21;;;;;;;3.72;1.90;;;2.60;99.90;;;;;;5004924;28;20049;-66
2021/04/16 00:58:48;;;;;;;4.30;1.45;;;2.50;99.90;;;;;;5001518;28;20676;-67
2021/04/16 01:01:14;;;;;;;6.65;1.55;;;2.50;99.90;;;;;;5003570;28;20050;-65
2021/04/16 01:03:41;;;;;;;4.57;1.10;;;2.50;99.90;;;;;;4998925;28;20747;-65
2021/04/16 01:06:09;;;;;;;3.38;1.30;;;2.60;99.90;;;;;;5002747;28;20050;-67
2021/04/16 01:08:37;;;;;;;10.15;2.47;;;2.50;99.90;;;;;;5007256;28;20050;-66
2021/04/16 01:11:05;;;;;;;10.93;3.28;;;2.50;99.90;;;;;;5001612;28;20046;-65
2021/04/16 01:13:33;;;;;;;8.07;1.58;;;2.50;99.90;;;;;;4997258;28;20060;-67
2021/04/16 01:16:03;;;;;;;3.97;1.45;;;2.50;99.90;;;;;;4999680;28;20050;-64
2021/04/16 01:18:34;;;;;;;5.50;1.70;;;2.50;99.90;;;;;;5002854;28;20576;-67
2021/04/16 01:21:09;;;;;;;8.50;1.40;;;2.50;99.90;;;;;;5000875;28;20050;-66
2021/04/16 01:23:45;;;;;;;7.30;1.70;;;2.50;99.90;;;;;;5003826;28;20049;-68
2021/04/16 01:26:15;;;;;;;6.18;1.88;;;2.50;99.90;;;;;;5000329;28;20042;-65
2021/04/16 01:28:42;;;;;;;6.85;1.55;;;2.50;99.90;;;;;;5000647;28;20069;-64
2021/04/16 01:31:12;;;;;;;7.10;1.42;;;2.40;99.90;;;;;;4997084;28;20131;-67
2021/04/16 01:33:40;;;;;;;11.77;2.22;;;2.40;99.90;;;;;;5000247;28;20050;-67
2021/04/16 01:36:12;;;;;;;8.18;2.10;;;2.40;99.90;;;;;;4998574;28;20554;-65
2021/04/16 01:38:40;;;;;;;7.22;1.63;;;2.40;99.90;;;;;;5000561;28;20068;-64
2021/04/16 01:41:08;;;;;;;8.75;3.00;;;2.40;99.90;;;;;;4999304;28;20135;-64
2021/04/16 01:43:53;;;;;;;7.50;1.85;;;2.40;99.90;;;;;;4998641;28;20831;-68
2021/04/16 01:46:20;;;;;;;3.33;1.65;;;2.40;99.90;;;;;;4997455;28;20121;-65
2021/04/16 01:48:53;;;;;;;11.73;1.88;;;2.40;99.90;;;;;;5001942;28;20045;-65
2021/04/16 01:51:24;;;;;;;4.82;2.38;;;2.40;99.90;;;;;;4999727;28;20498;-66
2021/04/16 01:54:10;;;;;;;5.22;1.42;;;2.40;99.90;;;;;;5000602;28;20113;-65
2021/04/16 01:56:38;;;;;;;11.00;2.30;;;2.40;99.90;;;;;;4999964;28;20512;-66
2021/04/16 01:59:13;;;;;;;10.90;1.90;;;2.40;99.90;;;;;;5001659;28;20046;-66
2021/04/16 02:01:43;;;;;;;7.57;1.92;;;2.40;99.90;;;;;;5000312;28;20085;-64
2021/04/16 02:04:11;;;;;;;10.05;1.50;;;2.40;99.90;;;;;;4997816;28;20609;-66
2021/04/16 02:06:38;;;;;;;9.52;1.63;;;2.40;99.90;;;;;;5001457;28;20058;-65
2021/04/16 02:09:07;;;;;;;8.77;2.05;;;2.40;99.90;;;;;;4998834;28;20445;-64
2021/04/16 02:11:35;;;;;;;3.90;2.63;;;2.40;99.90;;;;;;5002063;28;20112;-69
2021/04/16 02:14:05;;;;;;;5.70;2.30;;;2.50;99.90;;;;;;4996142;28;20046;-68
2021/04/16 02:16:33;;;;;;;4.53;1.75;;;2.50;99.90;;;;;;5001021;28;20169;-65
2021/04/16 02:19:01;;;;;;;8.30;2.63;;;2.50;99.90;;;;;;4994875;28;20123;-66
2021/04/16 02:21:28;;;;;;;9.70;1.77;;;2.50;99.90;;;;;;4999807;28;20586;-68
2021/04/16 02:23:54;;;;;;;5.40;1.92;;;2.40;99.90;;;;;;4993854;28;20380;-66
2021/04/16 02:26:21;;;;;;;8.70;2.05;;;2.50;99.90;;;;;;4998583;28;20084;-66
2021/04/16 02:28:47;;;;;;;7.18;2.13;;;2.50;99.90;;;;;;4998698;28;20042;-70
2021/04/16 02:31:13;;;;;;;6.43;1.40;;;2.40;99.90;;;;;;4999175;28;21470;-67
2021/04/16 02:33:42;;;;;;;6.50;1.63;;;2.50;99.90;;;;;;4999603;28;20050;-67
2021/04/16 02:36:10;;;;;;;7.03;1.42;;;2.40;99.90;;;;;;5000447;28;20068;-69
2021/04/16 02:38:37;;;;;;;7.30;3.05;;;2.50;99.90;;;;;;4996929;28;20867;-65
2021/04/16 02:41:04;;;;;;;8.57;1.35;;;2.40;99.90;;;;;;4997240;28;20096;-65
2021/04/16 02:43:32;;;;;;;6.95;1.45;;;2.40;99.90;;;;;;4998506;28;20050;-70
2021/04/16 02:45:59;;;;;;;8.70;2.20;;;2.40;99.90;;;;;;4997579;28;20065;-66
2021/04/16 02:48:26;;;;;;;7.18;2.50;;;2.40;99.90;;;;;;4998215;28;20041;-65
2021/04/16 02:50:54;;;;;;;7.47;2.17;;;2.40;99.90;;;;;;5000338;28;20042;-68
2021/04/16 02:53:20;;;;;;;8.15;1.98;;;2.40;99.90;;;;;;4996550;28;20053;-64
2021/04/16 02:55:47;;;;;;;3.88;1.38;;;2.40;99.90;;;;;;4998391;28;20100;-66
2021/04/16 02:58:13;;;;;;;3.90;1.42;;;2.40;99.90;;;;;;4995655;28;20369;-69
2021/04/16 03:00:39;;;;;;;7.75;1.60;;;2.40;99.90;;;;;;4997253;28;20050;-66
2021/04/16 03:03:06;;;;;;;9.82;1.60;;;2.50;99.90;;;;;;4995083;28;20056;-65
2021/04/16 03:05:33;;;;;;;4.80;2.88;;;2.50;99.90;;;;;;4992673;28;20042;-67
2021/04/16 03:07:59;;;;;;;5.10;1.95;;;2.50;99.90;;;;;;4996495;28;20049;-68
2021/04/16 03:10:30;;;;;;;7.57;3.53;;;2.50;99.90;;;;;;4992515;28;20046;-64
2021/04/16 03:12:56;;;;;;;7.93;1.50;;;2.50;99.90;;;;;;5002179;28;20045;-68
2021/04/16 03:15:23;;;;;;;15.55;2.63;;;2.50;99.90;;;;;;4995667;28;20058;-67
2021/04/16 03:17:50;;;;;;;5.68;1.60;;;2.50;99.90;;;;;;4998397;28;20038;-67
2021/04/16 03:20:21;;;;;;;4.57;1.90;;;2.50;99.90;;;;;;4995259;28;20065;-68
2021/04/16 03:23:06;;;;;;;15.15;3.30;;;2.50;99.90;;;;;;5000631;28;20064;-70
2021/04/16 03:25:33;;;;;;;4.00;1.38;;;2.50;99.90;;;;;;4995576;28;20492;-69
2021/04/16 03:28:00;;;;;;;6.03;2.28;;;2.50;99.90;;;;;;4995379;28;20049;-66
2021/04/16 03:30:27;;;;;;;6.05;1.60;;;2.50;99.90;;;;;;4997068;28;20050;-66
2021/04/16 03:32:54;;;;;;;6.35;1.67;;;2.50;99.90;;;;;;4997662;28;20045;-67
2021/04/16 03:35:21;;;;;;;14.07;3.17;;;2.50;99.90;;;;;;4995141;28;20133;-67
2021/04/16 03:37:49;;;;;;;11.82;4.05;;;2.50;99.90;;;;;;4997956;28;20077;-64
2021/04/16 03:40:20;;;;;;;5.88;1.20;;;2.50;99.90;;;;;;4998685;28;20038;-68
2021/04/16 03:42:46;;;;;;;16.50;2.65;;;2.50;99.90;;;;;;4999012;28;20054;-66
2021/04/16 03:45:14;;;;;;;4.38;1.50;;;2.60;99.90;;;;;;4995783;28;21102;-68
2021/04/16 03:47:42;;;;;;;9.23;1.50;;;2.60;99.90;;;;;;4996869;28;20042;-65
2021/04/16 03:50:13;;;;;;;8.75;2.05;;;2.60;99.90;;;;;;4998708;28;20133;-64
2021/04/16 03:52:40;;;;;;;7.55;1.70;;;2.60;99.90;;;;;;4999906;28;20050;-65
2021/04/16 03:55:08;;;;;;;7.78;1.52;;;2.60;99.90;;;;;;4993917;28;20050;-70
2021/04/16 03:57:34;;;;;;;4.38;1.00;;;2.70;99.90;;;;;;4997919;28;20085;-68
2021/04/16 04:00:06;;;;;;;6.03;2.13;;;2.70;99.90;;;;;;4994923;28;20045;-66
2021/04/16 04:02:33;;;;;;;8.88;1.98;;;2.80;99.90;;;;;;4999285;28;20412;-65
2021/04/16 04:05:00;;;;;;;5.70;1.88;;;2.80;99.90;;;;;;5005256;28;20717;-66
2021/04/16 04:07:26;;;;;;;4.75;1.73;;;2.90;99.90;;;;;;5004049;28;20052;-66
2021/04/16 04:09:53;;;;;;;10.73;2.15;;;2.90;99.90;;;;;;4997060;28;20680;-65
2021/04/16 04:12:20;;;;;;;9.60;2.00;;;2.90;99.90;;;;;;5002771;28;20057;-65
2021/04/16 04:14:46;;;;;;;11.45;2.00;;;2.90;99.90;;;;;;4999925;28;20096;-66
2021/04/16 04:17:29;;;;;;;5.05;1.55;;;3.00;99.90;;;;;;5001602;28;20049;-68
2021/04/16 04:19:56;;;;;;;5.53;1.52;;;3.00;99.90;;;;;;4998030;28;20069;-69
2021/04/16 04:22:23;;;;;;;3.10;1.35;;;3.00;99.90;;;;;;4997833;28;20045;-66
2021/04/16 04:24:49;;;;;;;6.32;3.45;;;3.10;99.90;;;;;;5003286;28;20372;-64
2021/04/16 04:27:16;;;;;;;5.40;2.15;;;3.10;99.90;;;;;;5003621;28;20702;-65
2021/04/16 04:29:44;;;;;;;6.20;1.27;;;3.10;99.90;;;;;;5002430;28;20069;-67
2021/04/16 04:32:11;;;;;;;10.98;2.88;;;3.10;99.90;;;;;;5000901;28;20072;-67
2021/04/16 04:34:39;;;;;;;9.95;2.00;;;3.20;99.90;;;;;;5002944;28;20057;-66
2021/04/16 04:37:07;;;;;;;16.33;2.28;;;3.20;99.90;;;;;;5000095;28;20057;-65
2021/04/16 04:39:37;;;;;;;8.65;1.67;;;3.30;99.90;;;;;;5001175;28;20138;-66
2021/04/16 04:42:16;;;;;;;13.25;3.25;;;3.30;99.90;;;;;;4945967;28;20046;-66
2021/04/16 04:44:42;;;;;;;7.55;3.67;;;3.40;99.90;;;;;;4988159;28;20074;-68
2021/04/16 04:47:09;;;;;;;9.80;2.85;;;3.40;99.90;;;;;;4997763;28;20072;-65
2021/04/16 04:49:37;;;;;;;10.52;1.98;;;3.40;99.90;;;;;;5000885;28;20073;-66
2021/04/16 04:52:19;;;;;;;12.57;3.65;;;3.40;99.90;;;;;;4997710;28;20050;-66
2021/04/16 04:54:49;;;;;;;9.63;2.17;;;3.50;99.90;;;;;;5001792;28;20884;-64
2021/04/16 04:57:18;;;;;;;6.65;2.42;;;3.50;99.90;;;;;;4995869;28;20046;-67
2021/04/16 04:59:45;;;;;;;4.00;1.38;;;3.50;99.90;;;;;;4998416;28;20050;-66
2021/04/16 05:02:13;;;;;;;6.35;1.88;;;3.50;99.90;;;;;;4999098;28;20132;-68
2021/04/16 05:04:40;;;;;;;10.32;2.30;;;3.60;99.90;;;;;;5000566;28;20042;-68
2021/04/16 05:07:07;;;;;;;3.33;0.98;;;3.60;99.90;;;;;;5000109;28;20061;-65
2021/04/16 05:09:33;;;;;;;7.70;2.38;;;3.60;99.90;;;;;;5001237;28;20046;-65
2021/04/16 05:12:00;;;;;;;7.80;1.65;;;3.70;99.90;;;;;;4995885;28;20533;-64
2021/04/16 05:14:27;;;;;;;4.05;1.48;;;3.70;99.90;;;;;;4996307;28;20060;-67
2021/04/16 05:16:54;;;;;;;6.90;2.00;;;3.70;99.90;;;;;;5000979;28;21200;-66
2021/04/16 05:19:21;;;;;;;8.15;2.50;;;3.80;99.90;;;;;;5002027;28;20052;-65
2021/04/16 05:21:49;;;;;;;7.95;3.13;;;3.80;99.90;;;;;;5000260;28;20060;-65
2021/04/16 05:24:16;;;;;;;5.00;1.15;;;3.90;99.90;;;;;;4999055;28;20072;-64
2021/04/16 05:26:43;;;;;;;6.60;2.33;;;3.90;99.90;;;;;;4999069;28;20048;-65
2021/04/16 05:29:09;;;;;;;4.55;1.60;;;4.00;99.90;;;;;;4997909;28;20046;-67
2021/04/16 05:31:36;;;;;;;10.82;3.05;;;4.10;99.90;;;;;;5001897;28;20054;-66
2021/04/16 05:34:04;;;;;;;5.47;1.27;;;4.00;99.90;;;;;;4993146;28;20050;-64
2021/04/16 05:36:31;;;;;;;6.22;1.98;;;4.10;99.90;;;;;;4988265;28;20066;-66
2021/04/16 05:38:58;;;;;;;8.98;1.48;;;4.10;99.90;;;;;;4989547;28;20073;-64
2021/04/16 05:41:24;;;;;;;9.07;2.30;;;4.10;99.90;;;;;;4997577;28;20049;-66
2021/04/16 05:43:51;;;;;;;13.18;1.77;;;4.20;99.90;;;;;;4994686;28;20042;-65
2021/04/16 05:46:18;;;;;;;4.70;1.45;;;4.20;99.90;;;;;;4996795;28;20050;-65
2021/04/16 05:48:44;;;;;;;14.35;2.60;;;4.30;99.90;;;;;;4996933;28;20054;-65
2021/04/16 05:51:11;;;;;;;3.08;1.33;;;4.30;99.90;;;;;;4996788;28;20050;-67
2021/04/16 05:53:37;;;;;;;5.68;1.15;;;4.40;99.90;;;;;;4996938;28;20103;-64
2021/04/16 05:56:05;;;;;;;5.95;2.20;;;4.50;99.90;;;;;;4999292;28;20128;-66
2021/04/16 05:58:32;;;;;;;11.75;2.90;;;4.50;99.90;;;;;;5000404;28;20507;-65
2021/04/16 06:00:59;;;;;;;10.18;2.38;;;4.50;99.90;;;;;;4997620;28;20080;-64
2021/04/16 06:03:29;;;;;;;4.25;1.40;;;4.50;99.90;;;;;;5000417;28;20069;-64
2021/04/16 06:05:58;;;;;;;6.75;1.60;;;4.60;99.90;;;;;;4994413;28;20374;-67
2021/04/16 06:08:25;;;;;;;8.23;1.65;;;4.60;99.90;;;;;;4999698;28;20057;-65
2021/04/16 06:10:53;;;;;;;4.43;3.38;;;4.70;99.90;;;;;;4998813;28;20366;-66
2021/04/16 06:13:19;;;;;;;8.50;1.77;;;4.70;99.90;;;;;;4999307;28;20050;-66
2021/04/16 06:15:46;;;;;;;3.08;1.75;;;4.80;99.90;;;;;;4995950;28;20100;-68
2021/04/16 06:18:12;;;;;;;5.18;1.52;;;4.90;99.90;;;;;;4998530;28;20061;-67
2021/04/16 06:20:39;;;;;;;6.60;1.75;;;4.90;99.90;;;;;;4999711;28;21646;-65
2021/04/16 06:23:05;;;;;;;6.03;2.22;;;5.00;99.90;;;;;;4999436;28;20089;-68
2021/04/16 06:25:34;;;;;;;6.53;1.55;;;5.10;99.90;;;;;;4998614;28;20103;-68
2021/04/16 06:28:02;;;;;;;9.82;1.42;;;5.10;99.90;;;;;;4996009;28;20056;-68
2021/04/16 06:30:30;;;;;;;5.15;1.00;;;5.30;99.90;;;;;;5000024;28;20419;-67
2021/04/16 06:33:14;;;;;;;3.33;1.25;;;5.30;99.90;;;;;;4996141;28;20065;-65
2021/04/16 06:35:46;;;;;;;13.20;2.15;;;5.40;99.90;;;;;;4997334;28;20080;-64
2021/04/16 06:38:14;;;;;;;5.25;1.40;;;5.50;99.90;;;;;;4996252;28;20072;-63
2021/04/16 06:40:45;;;;;;;5.80;1.25;;;5.50;99.90;;;;;;4999723;28;20169;-64
2021/04/16 06:43:11;;;;;;;5.53;0.90;;;5.60;99.90;;;;;;4999349;28;20054;-64
2021/04/16 06:45:37;;;;;;;5.45;0.98;;;5.70;99.90;;;;;;4996385;28;20491;-64
2021/04/16 06:48:06;;;;;;;7.38;1.30;;;5.70;99.90;;;;;;4997329;28;21299;-68
2021/04/16 06:50:58;;;;;;;1.52;0.75;;;5.70;99.90;;;;;;2291145;28;10024409;-65
2021/04/16 06:54:00;;;;;;;5.10;1.42;;;5.80;99.90;;;;;;4652591;28;10001303;-65
2021/04/16 06:56:38;;;;;;;9.93;1.50;;;5.90;99.90;;;;;;4997034;28;20488;-64
2021/04/16 06:59:19;;;;;;;7.43;1.17;;;5.90;99.90;;;;;;4994756;28;20574;-67
2021/04/16 07:02:04;;;;;;;5.80;1.23;;;6.00;99.90;;;;;;4997436;28;20509;-66
2021/04/16 07:04:36;;;;;;;5.07;1.20;;;6.00;99.90;;;;;;4997422;28;20511;-66
2021/04/16 07:07:21;;;;;;;3.40;0.85;;;6.00;99.90;;;;;;4999728;28;20064;-65
2021/04/16 07:10:10;;;;;;;8.95;2.28;;;6.10;99.90;;;;;;4993164;28;20076;-67
2021/04/16 07:12:37;;;;;;;4.57;1.55;;;6.20;99.90;;;;;;4996597;28;20091;-69
2021/04/16 07:15:17;;;;;;;7.97;3.10;;;6.20;99.90;;;;;;4995219;28;20513;-64
2021/04/16 07:17:46;;;;;;;5.95;1.63;;;6.30;99.90;;;;;;4997758;28;20128;-65
2021/04/16 07:20:17;;;;;;;11.18;1.38;;;6.30;99.90;;;;;;4995837;28;20196;-64
2021/04/16 07:22:50;;;;;;;2.55;0.98;;;6.30;99.90;;;;;;4998934;28;20048;-66
2021/04/16 07:25:51;;;;;;;4.50;1.20;;;6.40;99.90;;;;;;4993282;28;20053;-68
2021/04/16 07:28:44;;;;;;;7.35;1.38;;;6.50;99.90;;;;;;4997089;28;20045;-68
2021/04/16 07:31:42;;;;;;;1.85;0.73;;;6.50;99.90;;;;;;4996236;28;20046;-65
2021/04/16 07:34:37;;;;;;;6.68;1.45;;;6.60;99.90;;;;;;4977624;28;20085;-64
2021/04/16 07:37:14;;;;;;;3.13;1.17;;;6.60;99.90;;;;;;4975477;28;20061;-65
2021/04/16 07:39:49;;;;;;;3.67;0.95;;;6.70;99.90;;;;;;4980061;28;20770;-65
2021/04/16 07:42:22;;;;;;;10.32;1.80;;;6.70;99.90;;;;;;4986133;28;20050;-67
2021/04/16 07:45:02;;;;;;;4.70;1.38;;;6.70;99.90;;;;;;5001867;28;20133;-68
2021/04/16 07:47:32;;;;;;;3.85;0.85;;;6.70;99.90;;;;;;5001708;28;20422;-64
2021/04/16 07:50:03;;;;;;;3.03;0.87;;;6.70;99.90;;;;;;4998938;28;20049;-66
2021/04/16 07:52:38;;;;;;;1.70;1.13;;;6.70;99.90;;;;;;4999924;28;20054;-65
2021/04/16 07:55:16;;;;;;;8.70;2.03;;;6.80;99.90;;;;;;4999958;28;20072;-64
2021/04/16 07:57:51;;;;;;;2.75;0.90;;;6.80;99.90;;;;;;4998742;28;20050;-65
2021/04/16 08:00:23;;;;;;;3.75;2.05;;;6.80;99.90;;;;;;5002431;28;20135;-64
2021/04/16 08:02:56;;;;;;;4.65;1.95;;;6.80;99.90;;;;;;5000402;28;20042;-67
2021/04/16 08:05:25;;;;;;;4.53;1.48;;;6.80;99.90;;;;;;5001249;28;20125;-64
2021/04/16 08:08:13;;;;;;;5.38;1.10;;;6.90;99.90;;;;;;4999856;28;20090;-64
2021/04/16 08:10:41;;;;;;;8.50;1.45;;;7.00;99.90;;;;;;5000470;28;20137;-63
2021/04/16 08:13:21;;;;;;;11.05;1.20;;;7.10;99.90;;;;;;5001315;28;20077;-63
2021/04/16 08:15:48;;;;;;;4.40;1.40;;;7.20;99.90;;;;;;4999174;28;20148;-65
2021/04/16 08:18:18;;;;;;;6.38;1.05;;;7.20;99.90;;;;;;5000380;28;20053;-65
2021/04/16 08:21:17;;;;;;;4.30;1.30;;;7.30;99.90;;;;;;5000578;28;20056;-64
2021/04/16 08:24:07;;;;;;;6.10;1.17;;;7.50;99.90;;;;;;4999232;28;20295;-67
2021/04/16 08:26:41;;;;;;;4.90;1.92;;;7.60;99.90;;;;;;4999559;28;20061;-64
2021/04/16 08:29:31;;;;;;;2.20;1.35;;;7.70;99.90;;;;;;5000612;28;20869;-63
2021/04/16 08:32:10;;;;;;;2.63;1.05;;;7.80;99.90;;;;;;5000179;28;20054;-64
2021/04/16 08:34:44;;;;;;;5.07;1.17;;;7.90;99.90;;;;;;4999409;28;20046;-66
2021/04/16 08:37:26;;;;;;;5.05;1.27;;;7.90;99.90;;;;;;4999297;28;20085;-66
2021/04/16 08:39:53;;;;;;;3.88;1.15;;;7.90;99.90;;;;;;4997227;28;20137;-68
2021/04/16 08:42:29;;;;;;;9.15;1.42;;;7.90;99.90;;;;;;5000557;28;20705;-63
2021/04/16 08:45:14;;;;;;;9.32;1.67;;;8.00;99.90;;;;;;4999568;28;20127;-65
2021/04/16 08:47:54;;;;;;;2.92;0.80;;;8.00;99.90;;;;;;4996734;28;20057;-64
2021/04/16 08:50:26;;;;;;;5.55;1.42;;;8.10;99.90;;;;;;5001234;28;20050;-68
2021/04/16 08:52:59;;;;;;;3.88;1.13;;;8.20;99.90;;;;;;4999972;28;20057;-67
2021/04/16 08:55:38;;;;;;;2.78;1.05;;;8.20;99.90;;;;;;4998988;28;20164;-65
2021/04/16 08:58:15;;;;;;;6.70;1.45;;;8.20;99.90;;;;;;4978464;28;20061;-63
2021/04/16 09:00:52;;;;;;;5.13;2.70;;;8.20;99.90;;;;;;5000989;28;20089;-65
2021/04/16 09:03:23;;;;;;;4.50;1.13;;;8.20;99.90;;;;;;4997251;28;20053;-66
2021/04/16 09:06:02;;;;;;;3.75;1.40;;;8.20;99.90;;;;;;4998881;28;20046;-66
2021/04/16 09:08:48;;;;;;;5.03;1.35;;;8.30;99.90;;;;;;4997126;28;20484;-64
2021/04/16 09:11:46;;;;;;;3.97;0.88;;;8.30;99.90;;;;;;5000276;28;20096;-64
2021/04/16 09:14:25;;;;;;;3.28;0.80;;;8.30;99.90;;;;;;4997332;28;20061;-65
2021/04/16 09:17:02;;;;;;;2.25;1.08;;;8.40;99.90;;;;;;5000858;28;20601;-65
2021/04/16 09:19:29;;;;;;;7.65;1.42;;;8.40;99.90;;;;;;4999305;28;20049;-68
2021/04/16 09:22:04;;;;;;;8.48;1.27;;;8.40;99.90;;;;;;4998644;28;20368;-67
2021/04/16 09:24:49;;;;;;;5.95;2.45;;;8.50;99.90;;;;;;4998040;28;20156;-65
2021/04/16 09:27:34;;;;;;;6.45;1.90;;;8.60;99.90;;;;;;5000027;28;20498;-66
2021/04/16 09:30:02;;;;;;;1.13;0.85;;;8.50;99.90;;;;;;4995502;28;20045;-63
2021/04/16 09:32:39;;;;;;;5.03;1.00;;;8.60;99.90;;;;;;5000049;28;20074;-66
2021/04/16 09:35:18;;;;;;;15.77;2.25;;;8.70;99.90;;;;;;4996801;28;20042;-64
2021/04/16 09:38:39;;;;;;;4.18;0.85;;;8.70;99.90;;;;;;4999719;28;20464;-64
2021/04/16 09:41:18;;;;;;;9.25;1.10;;;8.70;99.90;;;;;;4993129;28;20124;-65
2021/04/16 09:43:46;;;;;;;4.10;1.05;;;8.60;99.90;;;;;;4998578;28;20132;-65
2021/04/16 09:46:31;;;;;;;12.43;1.50;;;8.50;99.90;;;;;;4995993;28;20073;-65
2021/04/16 09:49:02;;;;;;;9.07;1.10;;;8.50;99.90;;;;;;5000841;28;20080;-66
2021/04/16 09:51:45;;;;;;;11.65;2.35;;;8.60;99.90;;;;;;4995358;28;20069;-64
2021/04/16 09:54:20;;;;;;;11.63;1.48;;;8.70;99.90;;;;;;4997973;28;20057;-66
2021/04/16 09:57:02;;;;;;;8.63;1.25;;;8.60;99.90;;;;;;4997822;28;20046;-65
2021/04/16 09:59:48;;;;;;;4.95;1.60;;;8.60;99.90;;;;;;4996768;28;20261;-67
2021/04/16 10:02:21;;;;;;;1.85;0.90;;;8.50;99.90;;;;;;4999271;28;20148;-67
2021/04/16 10:05:11;;;;;;;7.25;1.95;;;8.40;99.90;;;;;;4996160;28;20132;-66
2021/04/16 10:07:51;;;;;;;2.85;1.00;;;8.20;99.90;;;;;;4997296;28;20056;-64
2021/04/16 10:10:37;;;;;;;4.93;1.45;;;8.00;99.90;;;;;;4997337;28;20050;-66
2021/04/16 10:13:15;;;;;;;10.18;1.30;;;7.80;99.90;;;;;;4998588;28;20764;-65
2021/04/16 10:15:45;;;;;;;3.28;0.95;;;7.40;99.90;;;;;;4994894;28;20038;-64
2021/04/16 10:18:21;;;;;;;5.70;1.42;;;7.20;99.90;;;;;;4999014;28;20159;-65
2021/04/16 10:21:08;;;;;;;5.78;1.48;;;7.20;99.90;;;;;;4994203;28;20049;-66
2021/04/16 10:23:48;;;;;;;2.60;0.88;;;7.10;99.90;;;;;;4997407;28;20054;-64
2021/04/16 10:43:33;;;;;;;3.67;1.50;;;7.00;99.90;;;;;;4991209;28;20084;-66
2021/04/16 12:39:04;;;;;;;8.45;2.47;;;8.80;99.90;;;;;;5004206;28;20144;-65
2021/04/16 12:41:43;;;;;;;10.52;1.83;;;8.60;99.90;;;;;;5002109;28;20169;-67
2021/04/16 12:44:45;;;;;;;8.75;1.38;;;8.70;99.90;;;;;;5003773;28;20058;-64
2021/04/16 12:47:28;;;;;;;5.55;1.27;;;8.60;99.90;;;;;;4960774;28;20083;-65
2021/04/16 12:49:55;;;;;;;7.40;1.70;;;8.60;99.90;;;;;;4983419;28;20062;-64
2021/04/16 12:52:22;;;;;;;7.53;2.40;;;8.60;99.90;;;;;;4982956;28;20046;-66
2021/04/16 12:54:51;;;;;;;7.03;1.02;;;8.50;99.90;;;;;;4982547;28;20051;-65
2021/04/16 12:57:21;;;;;;;5.63;0.98;;;8.60;99.90;;;;;;4983623;28;20452;-65
2021/04/16 12:59:49;;;;;;;4.40;1.65;;;8.60;99.90;;;;;;4979071;28;20046;-65
2021/04/16 13:02:24;;;;;;;8.00;1.38;;;8.60;99.90;;;;;;4985828;28;20650;-64
2021/04/16 13:04:52;;;;;;;11.07;2.05;;;8.70;99.90;;;;;;4982766;28;20059;-64
2021/04/16 13:07:18;;;;;;;12.15;1.10;;;8.60;99.90;;;;;;4984548;28;20054;-65
2021/04/16 13:09:45;;;;;;;5.20;2.13;;;8.70;99.90;;;;;;4980517;28;20072;-66
2021/04/16 13:12:11;;;;;;;5.20;1.48;;;8.70;99.90;;;;;;4983538;28;20046;-68
2021/04/16 13:14:38;;;;;;;8.25;1.75;;;8.60;99.90;;;;;;4982709;28;20080;-66
2021/04/16 13:17:04;;;;;;;5.60;1.33;;;8.70;99.90;;;;;;4984263;28;20072;-66
2021/04/16 13:19:35;;;;;;;3.65;1.10;;;8.70;99.90;;;;;;4982896;28;21531;-66
2021/04/16 13:22:05;;;;;;;;;;;8.50;99.90;;;;;;4980389;28;20739;-65
2021/04/16 13:24:33;;;;;;;9.35;1.30;;;8.40;99.90;;;;;;4981607;28;20382;-65
2021/04/16 13:27:02;;;;;;;3.47;0.95;;;8.50;99.90;;;;;;4982936;28;20129;-63
2021/04/16 13:29:33;;;;;;;4.75;1.38;;;8.40;99.90;;;;;;4979386;28;20486;-66
2021/04/16 13:32:02;;;;;;;4.18;1.27;;;8.40;99.90;;;;;;4983444;28;20060;-64
2021/04/16 13:34:31;;;;;;;3.72;1.00;;;8.50;99.90;;;;;;4979862;28;20408;-65
2021/04/16 13:36:58;;;;;;;12.50;1.70;;;8.50;99.90;;;;;;4981193;28;20045;-66
2021/04/16 13:39:25;;;;;;;5.40;3.00;;;8.40;99.90;;;;;;4981924;28;20050;-64
2021/04/16 13:41:52;;;;;;;9.38;2.55;;;8.50;99.90;;;;;;4977964;28;20651;-64
2021/04/16 13:44:18;;;;;;;5.70;1.35;;;8.60;99.90;;;;;;4997135;28;20784;-65
2021/04/16 13:46:48;;;;;;;4.20;1.33;;;8.60;99.90;;;;;;4988327;28;20049;-69
2021/04/16 13:49:20;;;;;;;9.02;1.58;;;8.70;99.90;;;;;;5002244;28;20088;-65
2021/04/16 13:51:47;;;;;;;6.35;1.42;;;8.60;99.90;;;;;;4999136;28;20053;-67
2021/04/16 13:54:14;;;;;;;4.78;1.08;;;8.70;99.90;;;;;;4983915;28;20100;-66
2021/04/16 13:56:59;;;;;;;4.15;1.73;;;8.70;99.90;;;;;;5002141;28;20195;-68
2021/04/16 13:59:26;;;;;;;5.93;1.20;;;8.80;99.90;;;;;;4999758;28;20054;-68
2021/04/16 14:01:54;;;;;;;9.50;1.67;;;8.70;99.90;;;;;;5001698;28;20187;-64
2021/04/16 14:04:26;;;;;;;15.70;1.20;;;8.70;99.90;;;;;;5003721;28;20057;-64
2021/04/16 14:06:57;;;;;;;1.45;0.82;;;8.80;99.90;;;;;;4998606;28;20042;-64
2021/04/16 14:09:25;;;;;;;11.98;2.35;;;8.70;99.90;;;;;;5001181;28;20062;-64
2021/04/16 14:11:55;;;;;;;8.07;1.50;;;8.70;99.90;;;;;;5001869;28;20057;-64
2021/04/16 14:14:26;;;;;;;3.78;1.05;;;8.50;99.90;;;;;;5001887;28;20049;-66
2021/04/16 14:16:58;;;;;;;;;;;8.50;99.90;;;;;;5003670;28;20050;-66
2021/04/16 14:19:30;;;;;;;7.25;0.93;;;8.50;99.90;;;;;;5001306;28;19937;-69
2021/04/16 14:21:58;;;;;;;2.83;1.33;;;8.40;99.90;;;;;;5001788;28;20041;-66
2021/04/16 14:24:26;;;;;;;11.30;2.40;;;8.30;99.90;;;;;;4996923;28;20464;-64
2021/04/16 14:26:55;;;;;;;10.88;1.38;;;8.30;99.90;;;;;;5000689;28;20045;-66
2021/04/16 14:29:21;;;;;;;3.83;1.65;;;8.40;99.90;;;;;;4994376;28;20256;-67
2021/04/16 14:31:48;;;;;;;4.93;1.13;;;8.40;99.90;;;;;;4998311;28;20140;-70
2021/04/16 14:34:20;;;;;;;4.40;0.90;;;8.40;99.90;;;;;;4997545;28;20129;-65
2021/04/16 14:36:47;;;;;;;3.03;1.02;;;8.50;99.90;;;;;;5003256;28;20066;-69
2021/04/16 14:39:14;;;;;;;4.38;1.02;;;8.40;99.90;;;;;;5000641;28;20054;-65
2021/04/16 14:41:41;;;;;;;3.17;0.93;;;8.40;99.90;;;;;;4998503;28;20041;-64
2021/04/16 14:44:14;;;;;;;5.95;1.40;;;8.50;99.90;;;;;;5001068;28;20058;-67
2021/04/16 14:46:44;;;;;;;6.40;0.93;;;8.50;99.90;;;;;;5000480;28;20496;-66
2021/04/16 14:49:12;;;;;;;2.85;1.13;;;8.50;99.90;;;;;;5000291;28;20076;-66
2021/04/16 14:51:40;;;;;;;3.05;1.30;;;8.40;99.90;;;;;;4998304;28;20103;-66
2021/04/16 14:54:24;;;;;;;4.90;1.25;;;8.50;99.90;;;;;;5000498;28;20096;-65
2021/04/16 14:56:51;;;;;;;7.35;1.50;;;8.50;99.90;;;;;;5002830;28;20058;-67
2021/04/16 14:59:29;;;;;;;3.50;1.20;;;8.50;99.90;;;;;;5000202;28;20073;-69
2021/04/16 15:01:56;;;;;;;4.75;1.13;;;8.60;99.90;;;;;;4998179;28;20131;-68
2021/04/16 15:04:22;;;;;;;2.70;1.42;;;8.70;99.90;;;;;;5000270;28;20160;-67
2021/04/16 15:06:58;;;;;;;16.77;1.67;;;8.60;99.90;;;;;;5000430;28;20053;-68
2021/04/16 15:09:29;;;;;;;9.35;1.42;;;8.60;99.90;;;;;;4999425;28;20061;-66
2021/04/16 15:11:56;;;;;;;13.45;1.70;;;8.90;99.90;;;;;;4997299;28;20048;-68
2021/04/16 15:14:27;;;;;;;8.02;1.65;;;8.90;99.90;;;;;;4998872;28;20119;-66
2021/04/16 15:16:54;;;;;;;12.02;1.65;;;9.00;99.90;;;;;;5001286;28;20054;-67
2021/04/16 15:19:40;;;;;;;2.03;0.90;;;9.10;99.90;;;;;;4999306;28;20041;-65
2021/04/16 15:22:15;;;;;;;5.57;0.93;;;9.20;99.90;;;;;;5000277;28;20128;-64
2021/04/16 15:24:43;;;;;;;3.33;0.88;;;9.20;99.90;;;;;;5003374;28;20048;-71
2021/04/16 15:27:25;;;;;;;3.50;1.05;;;9.30;99.90;;;;;;5002439;28;20077;-68
2021/04/16 15:29:55;;;;;;;2.88;1.13;;;9.00;99.90;;;;;;4990324;28;20046;-65